Time;durP1;ratioP1;P1;durP2;ratioP2;P2;SDS_P1;SDS_P2;PMS_P1;PMS_P2;Temp;Humidity;BMP_temperature;BMP_pressure;BME280_temperature;BME280_humidity;BME280_pressure;Samples;Min_cycle;Max_cycle;Signal;HPM_P1;HPM_P2
2022/03/04 00:00:47;;;;;;;;;;;;;;;4.25;40.84;99379.62;5313741;27;34976;-87
2022/03/04 00:03:16;;;;;;;;;;;;;;;4.17;41.07;99383.84;5314925;27;35047;-88
2022/03/04 00:05:44;;;;;;;;;;;;;;;4.27;40.88;99388.22;5319527;27;33357;-88
2022/03/04 00:08:13;;;;;;;;;;;;;;;4.23;40.85;99392.47;5295012;27;33164;-88
2022/03/04 00:10:42;;;;;;;;;;;;;;;4.30;40.75;99397.63;5314914;27;33719;-89
2022/03/04 00:13:11;;;;;;;;;;;;;;;4.28;40.67;99395.09;5314627;27;33912;-88
2022/03/04 00:15:40;;;;;;;;;;;;;;;4.13;41.11;99394.94;5313952;27;33372;-89
2022/03/04 00:18:08;;;;;;;;;;;;;;;4.07;41.44;99395.75;5319979;27;33518;-88
2022/03/04 00:20:37;;;;;;;;;;;;;;;3.99;41.65;99395.69;5313430;27;33778;-89
2022/03/04 00:23:05;;;;;;;;;;;;;;;3.95;42.14;99396.50;5314406;27;33680;-87
2022/03/04 00:25:34;;;;;;;;;;;;;;;4.10;41.83;99394.94;5314548;27;32905;-88
2022/03/04 00:28:02;;;;;;;;;;;;;;;4.13;41.72;99403.53;5316995;27;34195;-88
2022/03/04 00:30:32;;;;;;;;;;;;;;;4.18;41.19;99396.72;5332326;26;35176;-87
2022/03/04 00:33:01;;;;;;;;;;;;;;;4.10;41.69;99387.22;5341797;26;33552;-88
2022/03/04 00:35:30;;;;;;;;;;;;;;;4.12;41.48;99394.09;5316041;26;32345;-88
2022/03/04 00:37:58;;;;;;;;;;;;;;;4.13;41.50;99393.25;5336336;26;33519;-88
2022/03/04 00:40:29;;;;;;;;;;;;;;;4.18;41.66;99380.44;5335926;26;34925;-88
2022/03/04 00:42:58;;;;;;;;;;;;;;;4.21;41.55;99383.91;5336500;26;34187;-87
2022/03/04 00:45:26;;;;;;;;;;;;;;;4.15;41.68;99386.41;5342047;26;33230;-87
2022/03/04 00:47:56;;;;;;;;;;;;;;;4.26;41.56;99378.81;5337273;26;33943;-87
2022/03/04 00:50:25;;;;;;;;;;;;;;;4.43;41.12;99379.78;5336028;26;33808;-87
2022/03/04 00:52:55;;;;;;;;;;;;;;;4.55;40.90;99376.41;5316035;26;33459;-88
2022/03/04 00:55:24;;;;;;;;;;;;;;;4.43;41.09;99376.34;5337144;26;32979;-87
2022/03/04 00:57:52;;;;;;;;;;;;;;;4.44;41.39;99385.75;5321770;26;33373;-89
2022/03/04 01:00:21;;;;;;;;;;;;;;;4.32;41.29;99383.97;5335906;26;33790;-89
2022/03/04 01:02:49;;;;;;;;;;;;;;;4.49;41.20;99384.06;5336823;26;34258;-86
2022/03/04 01:05:19;;;;;;;;;;;;;;;4.69;40.53;99384.22;5337658;26;33264;-89
2022/03/04 01:07:48;;;;;;;;;;;;;;;4.48;41.14;99379.81;5335760;26;36234;-89
2022/03/04 01:10:17;;;;;;;;;;;;;;;4.57;40.99;99377.28;5340979;26;34249;-88
2022/03/04 01:12:46;;;;;;;;;;;;;;;4.52;41.35;99378.09;5336449;26;33681;-88
2022/03/04 01:15:14;;;;;;;;;;;;;;;4.55;41.46;99376.41;5335436;26;33334;-87
2022/03/04 01:17:43;;;;;;;;;;;;;;;4.59;41.39;99378.16;5335992;26;33872;-87
2022/03/04 01:20:14;;;;;;;;;;;;;;;4.67;41.25;99371.34;5336883;26;34302;-87
2022/03/04 01:22:44;;;;;;;;;;;;;;;4.57;41.34;99379.00;5342402;26;34819;-89
2022/03/04 01:25:14;;;;;;;;;;;;;;;4.79;40.90;99374.84;5336928;26;33042;-89
2022/03/04 01:27:43;;;;;;;;;;;;;;;4.64;41.04;99375.59;5336852;26;34019;-90
2022/03/04 01:30:14;;;;;;;;;;;;;;;4.63;40.90;99371.31;5337313;26;33955;-87
2022/03/04 01:32:42;;;;;;;;;;;;;;;4.76;40.67;99367.97;5337111;26;35992;-89
2022/03/04 01:35:10;;;;;;;;;;;;;;;4.60;41.20;99363.59;5343309;26;31472;-88
2022/03/04 01:37:39;;;;;;;;;;;;;;;4.73;41.29;99369.66;5337994;26;34905;-87
2022/03/04 01:40:10;;;;;;;;;;;;;;;4.83;41.14;99366.28;5337208;26;33490;-87
2022/03/04 01:42:38;;;;;;;;;;;;;;;4.82;41.27;99367.13;5336950;26;33993;-88
2022/03/04 01:45:08;;;;;;;;;;;;;;;4.77;41.51;99367.13;5317003;26;32382;-87
2022/03/04 01:47:39;;;;;;;;;;;;;;;4.82;42.46;99364.56;5336928;26;34505;-87
2022/03/04 01:50:08;;;;;;;;;;;;;;;4.92;42.95;99363.75;5343027;26;34918;-89
2022/03/04 01:52:37;;;;;;;;;;;;;;;4.83;43.25;99361.13;5336736;26;33909;-89
2022/03/04 01:55:06;;;;;;;;;;;;;;;4.79;44.17;99362.00;5337621;26;33216;-89
2022/03/04 01:57:36;;;;;;;;;;;;;;;4.72;45.05;99358.53;5338084;26;34617;-87
2022/03/04 02:00:05;;;;;;;;;;;;;;;4.88;45.01;99360.31;5337961;26;33999;-89
2022/03/04 02:02:39;;;;;;;;;;;;;;;3.55;48.75;99362.81;5343574;26;34737;-88
2022/03/04 02:05:09;;;;;;;;;;;;;;;3.85;48.43;99372.47;5337938;26;33461;-88
2022/03/04 02:07:38;;;;;;;;;;;;;;;4.05;48.05;99372.62;5337916;26;33775;-88
2022/03/04 02:10:08;;;;;;;;;;;;;;;3.79;48.72;99366.44;5337967;26;33638;-88
2022/03/04 02:12:38;;;;;;;;;;;;;;;3.82;48.91;99369.03;5338258;26;33957;-88
2022/03/04 02:15:08;;;;;;;;;;;;;;;3.67;49.05;99366.31;5342167;26;33092;-88
2022/03/04 02:17:36;;;;;;;;;;;;;;;4.40;47.71;99381.47;5343869;26;35769;-87
2022/03/04 02:20:05;;;;;;;;;;;;;;;4.26;49.91;99373.66;5337847;26;35169;-87
2022/03/04 02:22:35;;;;;;;;;;;;;;;4.14;52.67;99374.44;5338198;26;35177;-88
2022/03/04 02:25:05;;;;;;;;;;;;;;;4.36;52.24;99379.72;5338045;26;33483;-89
2022/03/04 02:27:33;;;;;;;;;;;;;;;4.06;53.27;99370.94;5338379;26;33726;-88
2022/03/04 02:30:02;;;;;;;;;;;;;;;4.26;52.89;99373.66;5342913;26;33851;-87
2022/03/04 02:32:30;;;;;;;;;;;;;;;4.34;52.70;99372.00;5337935;26;33903;-88
2022/03/04 02:35:01;;;;;;;;;;;;;;;3.83;54.90;99371.59;5337747;26;33330;-88
2022/03/04 02:37:29;;;;;;;;;;;;;;;4.28;53.89;99375.37;5341103;26;33596;-88
2022/03/04 02:39:59;;;;;;;;;;;;;;;3.84;55.21;99372.44;5338155;26;34742;-87
2022/03/04 02:42:28;;;;;;;;;;;;;;;3.49;56.36;99378.13;5343533;26;34183;-89
2022/03/04 02:44:56;;;;;;;;;;;;;;;3.82;55.30;99385.28;5337580;26;33439;-88
2022/03/04 02:47:25;;;;;;;;;;;;;;;4.27;53.95;99388.22;5337715;26;34859;-87
2022/03/04 02:49:53;;;;;;;;;;;;;;;3.99;54.41;99385.44;5337735;26;34718;-89
2022/03/04 02:52:25;;;;;;;;;;;;;;;3.97;54.50;99386.28;5338033;26;34192;-88
2022/03/04 02:54:54;;;;;;;;;;;;;;;4.14;53.97;99384.69;5343186;26;33900;-88
2022/03/04 02:57:23;;;;;;;;;;;;;;;3.98;54.28;99382.84;5338810;26;34184;-88
2022/03/04 02:59:53;;;;;;;;;;;;;;;4.00;54.13;99387.16;5338081;26;34217;-88
2022/03/04 03:02:21;;;;;;;;;;;;;;;4.03;54.23;99387.16;5337876;26;34597;-89
2022/03/04 03:04:50;;;;;;;;;;;;;;;3.77;54.98;99384.37;5338131;26;33158;-89
2022/03/04 03:07:18;;;;;;;;;;;;;;;4.04;54.38;99388.03;5338653;26;35564;-88
2022/03/04 03:09:47;;;;;;;;;;;;;;;4.06;53.97;99388.91;5342901;26;34672;-88
2022/03/04 03:12:16;;;;;;;;;;;;;;;4.17;53.84;99392.41;5337112;26;34301;-90
2022/03/04 03:14:45;;;;;;;;;;;;;;;3.80;54.86;99397.25;5336529;26;33454;-87
2022/03/04 03:17:14;;;;;;;;;;;;;;;3.85;54.87;99398.13;5336763;26;36239;-89
2022/03/04 03:19:42;;;;;;;;;;;;;;;3.66;55.33;99393.69;5317643;26;32702;-89
2022/03/04 03:22:12;;;;;;;;;;;;;;;3.76;54.92;99394.62;5343522;26;34884;-87
2022/03/04 03:24:40;;;;;;;;;;;;;;;3.87;54.57;99393.03;5318092;26;33301;-89
2022/03/04 03:27:09;;;;;;;;;;;;;;;3.76;55.33;99399.75;5337631;26;34198;-89
2022/03/04 03:29:37;;;;;;;;;;;;;;;3.69;55.25;99400.53;5337109;26;34041;-88
2022/03/04 03:32:08;;;;;;;;;;;;;;;3.54;55.66;99406.37;5337680;26;34378;-89
2022/03/04 03:34:36;;;;;;;;;;;;;;;3.78;55.16;99405.78;5343377;26;31939;-89
2022/03/04 03:37:05;;;;;;;;;;;;;;;3.91;54.45;99405.03;5337784;26;34156;-88
2022/03/04 03:39:34;;;;;;;;;;;;;;;3.98;54.56;99403.38;5337363;26;33641;-89
2022/03/04 03:42:02;;;;;;;;;;;;;;;4.01;54.11;99411.09;5338781;26;35000;-89
2022/03/04 03:44:31;;;;;;;;;;;;;;;4.10;53.35;99408.63;5337589;26;34159;-89
2022/03/04 03:46:59;;;;;;;;;;;;;;;4.13;53.05;99418.94;5343283;26;33813;-89
2022/03/04 03:49:29;;;;;;;;;;;;;;;4.11;53.00;99405.22;5337558;26;35154;-87
2022/03/04 03:52:00;;;;;;;;;;;;;;;4.10;53.35;99400.91;5337767;26;34165;-87
2022/03/04 03:54:29;;;;;;;;;;;;;;;4.16;53.11;99406.13;5337518;26;34531;-89
2022/03/04 03:56:57;;;;;;;;;;;;;;;4.03;53.38;99407.69;5337767;26;34082;-89
2022/03/04 03:59:26;;;;;;;;;;;;;;;4.12;53.20;99406.06;5338268;26;34366;-89
2022/03/04 04:01:54;;;;;;;;;;;;;;;4.20;52.84;99407.84;5322709;26;32281;-89
2022/03/04 04:04:23;;;;;;;;;;;;;;;4.23;52.75;99410.44;5337676;26;33123;-89
2022/03/04 04:06:53;;;;;;;;;;;;;;;4.32;52.58;99411.34;5337694;26;33856;-88
2022/03/04 04:09:21;;;;;;;;;;;;;;;4.33;52.49;99402.81;5337509;26;34610;-87
2022/03/04 04:11:50;;;;;;;;;;;;;;;4.31;52.72;99407.09;5337970;26;34571;-89
2022/03/04 04:14:18;;;;;;;;;;;;;;;4.31;52.90;99407.09;5341314;26;33375;-87
2022/03/04 04:16:47;;;;;;;;;;;;;;;4.19;53.28;99411.25;5335899;26;34645;-89
2022/03/04 04:19:15;;;;;;;;;;;;;;;4.22;53.32;99410.44;5336597;26;34229;-87
2022/03/04 04:21:44;;;;;;;;;;;;;;;4.28;53.54;99416.47;5337343;26;33662;-89
2022/03/04 04:24:14;;;;;;;;;;;;;;;4.21;53.71;99412.13;5335124;26;33398;-89
2022/03/04 04:26:42;;;;;;;;;;;;;;;4.16;53.97;99413.81;5343182;26;33948;-89
2022/03/04 04:29:12;;;;;;;;;;;;;;;4.22;53.90;99416.41;5337286;26;34678;-89
2022/03/04 04:31:40;;;;;;;;;;;;;;;4.21;53.65;99412.13;5337694;26;34346;-87
2022/03/04 04:34:09;;;;;;;;;;;;;;;4.19;53.84;99418.12;5337288;26;33372;-87
2022/03/04 04:36:37;;;;;;;;;;;;;;;4.08;53.93;99412.88;5337341;26;33820;-88
2022/03/04 04:39:06;;;;;;;;;;;;;;;3.71;55.66;99419.38;5343544;26;35053;-87
2022/03/04 04:41:36;;;;;;;;;;;;;;;3.84;55.11;99422.09;5337407;26;34570;-87
2022/03/04 04:44:05;;;;;;;;;;;;;;;3.52;56.14;99426.03;5337738;26;34102;-89
2022/03/04 04:46:33;;;;;;;;;;;;;;;3.52;56.37;99420.88;5337266;26;34155;-89
2022/03/04 04:49:02;;;;;;;;;;;;;;;3.80;55.09;99433.16;5337909;26;34203;-88
2022/03/04 04:51:30;;;;;;;;;;;;;;;4.08;54.29;99433.41;5343024;26;34215;-90
2022/03/04 04:53:59;;;;;;;;;;;;;;;4.09;54.04;99432.56;5341356;26;32665;-87
2022/03/04 04:56:27;;;;;;;;;;;;;;;4.21;53.55;99435.25;5337832;26;33672;-89
2022/03/04 04:58:57;;;;;;;;;;;;;;;4.31;53.17;99441.31;5337425;26;33859;-89
2022/03/04 05:01:25;;;;;;;;;;;;;;;4.31;53.15;99448.16;5336975;26;34759;-88
2022/03/04 05:03:56;;;;;;;;;;;;;;;4.40;53.14;99458.53;5337030;26;33407;-90
2022/03/04 05:06:24;;;;;;;;;;;;;;;4.31;53.43;99453.31;5342708;26;33100;-89
2022/03/04 05:08:59;;;;;;;;;;;;;;;4.35;53.69;99461.06;5337336;26;34309;-88
2022/03/04 05:11:27;;;;;;;;;;;;;;;3.97;54.91;99466.69;5337004;26;34245;-89
2022/03/04 05:13:57;;;;;;;;;;;;;;;4.07;54.46;99471.06;5337687;26;33342;-88
2022/03/04 05:16:26;;;;;;;;;;;;;;;3.71;55.52;99465.56;5337163;26;33114;-87
2022/03/04 05:18:54;;;;;;;;;;;;;;;3.84;55.23;99473.41;5343231;26;35034;-89
2022/03/04 05:21:23;;;;;;;;;;;;;;;3.69;55.67;99465.53;5336820;26;34143;-88
2022/03/04 05:24:00;;;;;;;;;;;;;;;3.70;55.89;99469.84;5337043;26;33755;-87
2022/03/04 05:26:29;;;;;;;;;;;;;;;3.63;56.11;99473.19;5338800;26;33681;-88
2022/03/04 05:28:59;;;;;;;;;;;;;;;3.79;55.70;99476.75;5338326;26;35041;-88
2022/03/04 05:31:28;;;;;;;;;;;;;;;3.97;55.22;99483.81;5338408;26;34114;-88
2022/03/04 05:33:56;;;;;;;;;;;;;;;3.91;55.45;99487.16;5343444;26;33605;-88
2022/03/04 05:36:26;;;;;;;;;;;;;;;3.97;55.26;99484.66;5337409;26;34039;-87
2022/03/04 05:38:54;;;;;;;;;;;;;;;4.07;54.93;99485.59;5338017;26;34357;-87
2022/03/04 05:41:23;;;;;;;;;;;;;;;3.91;55.17;99489.72;5337316;26;34326;-88
2022/03/04 05:43:51;;;;;;;;;;;;;;;4.09;55.05;99498.47;5340746;26;33892;-88
2022/03/04 05:46:21;;;;;;;;;;;;;;;4.33;54.28;99496.13;5343545;26;34201;-87
2022/03/04 05:48:50;;;;;;;;;;;;;;;4.08;55.08;99502.72;5338185;26;35056;-88
2022/03/04 05:51:18;;;;;;;;;;;;;;;4.14;54.94;99510.50;5338324;26;34290;-89
2022/03/04 05:53:49;;;;;;;;;;;;;;;4.27;54.62;99509.75;5337795;26;32956;-88
2022/03/04 05:56:17;;;;;;;;;;;;;;;4.25;54.59;99518.28;5337976;26;34886;-88
2022/03/04 05:58:46;;;;;;;;;;;;;;;4.60;53.52;99517.75;5343531;26;35235;-87
2022/03/04 06:01:15;;;;;;;;;;;;;;;4.40;54.04;99520.16;5338044;26;33712;-88
2022/03/04 06:03:45;;;;;;;;;;;;;;;4.48;53.83;99518.50;5339016;26;33282;-89
2022/03/04 06:06:14;;;;;;;;;;;;;;;4.54;53.50;99522.81;5337660;26;34981;-88
2022/03/04 06:08:42;;;;;;;;;;;;;;;4.73;53.04;99523.84;5337374;26;34276;-89
2022/03/04 06:11:11;;;;;;;;;;;;;;;4.45;53.86;99528.75;5343890;26;34876;-87
2022/03/04 06:13:39;;;;;;;;;;;;;;;4.61;53.31;99530.59;5336843;26;34048;-88
2022/03/04 06:16:08;;;;;;;;;;;;;;;4.70;53.04;99524.69;5337599;26;35009;-88
2022/03/04 06:18:37;;;;;;;;;;;;;;;4.70;53.11;99524.69;5337847;26;34379;-90
2022/03/04 06:21:07;;;;;;;;;;;;;;;4.72;53.06;99537.56;5337940;26;33893;-88
2022/03/04 06:23:35;;;;;;;;;;;;;;;4.70;53.02;99534.97;5338440;26;33152;-88
2022/03/04 06:26:04;;;;;;;;;;;;;;;4.85;52.45;99541.91;5343388;26;34422;-87
2022/03/04 06:28:32;;;;;;;;;;;;;;;4.76;52.52;99544.41;5338042;26;34266;-88
2022/03/04 06:31:01;;;;;;;;;;;;;;;4.84;52.44;99548.78;5316847;26;33462;-88
2022/03/04 06:33:33;;;;;;;;;;;;;;;4.94;51.82;99556.56;5337886;26;33719;-88
2022/03/04 06:36:03;;;;;;;;;;;;;;;4.84;52.26;99553.91;5337764;26;34463;-88
2022/03/04 06:38:34;;;;;;;;;;;;;;;4.99;51.47;99562.59;5343666;26;34850;-88
2022/03/04 06:41:04;;;;;;;;;;;;;;;4.80;52.24;99567.59;5337544;26;33932;-87
2022/03/04 06:43:32;;;;;;;;;;;;;;;4.92;52.07;99571.97;5317952;26;32497;-88
2022/03/04 06:46:03;;;;;;;;;;;;;;;5.11;51.49;99562.69;5337412;26;34414;-88
2022/03/04 06:48:31;;;;;;;;;;;;;;;4.98;51.97;99566.87;5336952;26;34347;-88
2022/03/04 06:51:01;;;;;;;;;;;;;;;5.09;51.67;99564.38;5342900;26;33909;-87
2022/03/04 06:53:29;;;;;;;;;;;;;;;4.33;53.35;99562.91;5317072;26;33406;-86
2022/03/04 06:55:59;;;;;;;;;;;;;;;4.49;53.50;99561.31;5317301;26;32471;-88
2022/03/04 06:58:32;;;;;;;;;;;;;;;4.57;53.55;99564.84;5336796;26;36360;-87
2022/03/04 07:01:02;;;;;;;;;;;;;;;4.49;54.00;99557.06;5335648;26;33359;-87
2022/03/04 07:03:31;;;;;;;;;;;;;;;4.78;53.61;99563.28;5341024;26;33460;-87
2022/03/04 07:06:01;;;;;;;;;;;;;;;4.57;53.44;99569.13;5316238;26;33762;-89
2022/03/04 07:08:30;;;;;;;;;;;;;;;4.81;53.22;99568.44;5337145;26;34248;-87
2022/03/04 07:11:01;;;;;;;;;;;;;;;5.05;52.67;99573.78;5337414;26;35044;-88
2022/03/04 07:13:29;;;;;;;;;;;;;;;4.96;53.03;99578.00;5337520;26;32716;-88
2022/03/04 07:15:57;;;;;;;;;;;;;;;4.96;52.92;99578.00;5321325;26;33585;-89
2022/03/04 07:18:29;;;;;;;;;;;;;;;4.99;53.20;99573.72;5336865;26;34071;-90
2022/03/04 07:21:00;;;;;;;;;;;;;;;4.96;53.08;99583.16;5337216;26;34236;-88
2022/03/04 07:23:31;;;;;;;;;;;;;;;5.07;52.62;99589.22;5337126;26;33592;-89
2022/03/04 07:26:01;;;;;;;;;;;;;;;4.92;52.94;99583.09;5316585;26;33521;-88
2022/03/04 07:28:29;;;;;;;;;;;;;;;5.27;52.44;99589.37;5337075;26;34234;-88
2022/03/04 07:30:59;;;;;;;;;;;;;;;5.52;51.74;99592.94;5343157;26;34070;-90
2022/03/04 07:33:27;;;;;;;;;;;;;;;5.72;51.29;99593.91;5316722;26;32348;-90
2022/03/04 07:35:55;;;;;;;;;;;;;;;5.39;51.89;99601.44;5336668;26;34545;-88
2022/03/04 07:38:24;;;;;;;;;;;;;;;5.63;50.87;99598.13;5337602;26;34928;-87
2022/03/04 07:41:02;;;;;;;;;;;;;;;5.38;51.59;99597.16;5335877;26;35009;-89
2022/03/04 07:43:42;;;;;;;;;;;;;;;5.11;51.69;99596.97;5341040;26;32835;-89
2022/03/04 07:46:17;;;;;;;;;;;;;;;5.60;50.35;99608.41;5319594;26;34170;-89
2022/03/04 07:48:46;;;;;;;;;;;;;;;5.69;50.40;99611.06;5334193;26;34538;-89
2022/03/04 07:51:15;;;;;;;;;;;;;;;4.87;52.54;99607.06;5334230;26;34238;-88
2022/03/04 07:53:43;;;;;;;;;;;;;;;4.82;52.93;99612.16;5334206;26;34133;-89
2022/03/04 07:56:12;;;;;;;;;;;;;;;4.86;53.04;99611.34;5333963;26;34107;-88
2022/03/04 07:58:42;;;;;;;;;;;;;;;3.74;56.99;99620.37;5340777;26;35000;-87
2022/03/04 08:01:11;;;;;;;;;;;;;;;3.34;59.23;99624.97;5335195;26;34022;-88
2022/03/04 08:03:48;;;;;;;;;;;;;;;3.40;59.75;99630.16;5316245;26;32436;-87
2022/03/04 08:06:17;;;;;;;;;;;;;;;3.46;59.84;99629.41;5335602;26;34018;-88
2022/03/04 08:08:46;;;;;;;;;;;;;;;3.82;59.18;99634.19;5314814;26;32743;-87
2022/03/04 08:11:15;;;;;;;;;;;;;;;3.93;59.21;99636.88;5321145;26;32902;-88
2022/03/04 08:13:44;;;;;;;;;;;;;;;4.37;58.20;99639.09;5314600;26;32877;-89
2022/03/04 08:16:13;;;;;;;;;;;;;;;3.45;61.28;99643.06;5334004;26;33479;-88
2022/03/04 08:18:49;;;;;;;;;;;;;;;3.62;60.91;99645.88;5334193;26;34192;-90
2022/03/04 08:21:18;;;;;;;;;;;;;;;3.89;60.11;99647.09;5335013;26;34875;-88
2022/03/04 08:23:46;;;;;;;;;;;;;;;3.34;62.76;99644.63;5334305;26;33447;-89
2022/03/04 08:26:14;;;;;;;;;;;;;;;3.26;62.33;99646.19;5340651;26;34698;-88
2022/03/04 08:28:44;;;;;;;;;;;;;;;3.17;62.75;99646.94;5315519;26;34187;-87
2022/03/04 08:31:13;;;;;;;;;;;;;;;3.45;61.47;99650.75;5315220;26;33381;-88
2022/03/04 08:33:43;;;;;;;;;;;;;;;4.32;59.36;99653.59;5336056;26;33691;-89
2022/03/04 08:36:11;;;;;;;;;;;;;;;4.16;59.94;99652.59;5335057;26;34929;-89
2022/03/04 08:38:40;;;;;;;;;;;;;;;4.45;58.85;99657.19;5341145;26;35074;-88
2022/03/04 08:41:09;;;;;;;;;;;;;;;4.74;58.12;99649.78;5335402;26;34224;-89
2022/03/04 08:43:38;;;;;;;;;;;;;;;4.56;58.37;99655.59;5335171;26;34071;-89
2022/03/04 08:46:11;;;;;;;;;;;;;;;3.96;60.58;99654.03;5334247;26;34266;-88
2022/03/04 08:48:49;;;;;;;;;;;;;;;4.61;58.90;99656.50;5336208;26;33760;-89
2022/03/04 08:51:18;;;;;;;;;;;;;;;4.10;60.47;99657.63;5336270;26;33882;-90
2022/03/04 08:53:46;;;;;;;;;;;;;;;4.23;59.86;99663.81;5341499;26;33425;-90
2022/03/04 08:56:15;;;;;;;;;;;;;;;4.40;59.02;99658.84;5335060;26;34135;-88
2022/03/04 08:58:43;;;;;;;;;;;;;;;4.86;57.77;99662.75;5315454;26;33015;-88
2022/03/04 09:01:15;;;;;;;;;;;;;;;5.28;56.56;99658.81;5335024;26;33527;-88
2022/03/04 09:03:45;;;;;;;;;;;;;;;5.68;54.80;99655.66;5334533;26;33797;-88
2022/03/04 09:06:14;;;;;;;;;;;;;;;5.78;53.94;99660.00;5320297;26;33706;-88
2022/03/04 09:08:42;;;;;;;;;;;;;;;6.11;53.00;99661.94;5336979;26;33699;-88
2022/03/04 09:11:10;;;;;;;;;;;;;;;6.32;52.30;99656.00;5334207;26;34802;-88
2022/03/04 09:13:39;;;;;;;;;;;;;;;6.49;51.30;99661.19;5334771;26;33371;-86
2022/03/04 09:16:07;;;;;;;;;;;;;;;6.61;51.07;99661.22;5333169;26;33970;-87
2022/03/04 09:18:37;;;;;;;;;;;;;;;6.87;50.33;99654.41;5340483;26;33945;-88
2022/03/04 09:21:06;;;;;;;;;;;;;;;7.11;49.39;99662.16;5334431;26;34162;-86
2022/03/04 09:23:35;;;;;;;;;;;;;;;6.75;50.19;99656.09;5334698;26;33349;-88
2022/03/04 09:26:03;;;;;;;;;;;;;;;7.11;49.15;99661.31;5336435;26;34646;-85
2022/03/04 09:28:32;;;;;;;;;;;;;;;6.63;49.81;99661.25;5335400;26;34647;-86
2022/03/04 09:31:01;;;;;;;;;;;;;;;6.92;49.76;99663.00;5340617;26;35020;-87
2022/03/04 09:33:30;;;;;;;;;;;;;;;7.26;49.03;99663.88;5338465;26;34242;-86
2022/03/04 09:36:01;;;;;;;;;;;;;;;7.20;48.89;99663.88;5334952;26;34249;-87
2022/03/04 09:38:29;;;;;;;;;;;;;;;7.19;47.92;99680.22;5335535;26;34061;-86
2022/03/04 09:40:59;;;;;;;;;;;;;;;7.19;47.99;99675.91;5334806;26;33810;-89
2022/03/04 09:43:27;;;;;;;;;;;;;;;7.48;47.22;99677.62;5314669;26;33402;-87
2022/03/04 09:45:56;;;;;;;;;;;;;;;7.20;47.94;99677.66;5340497;26;34599;-88
2022/03/04 09:48:25;;;;;;;;;;;;;;;7.26;47.54;99680.22;5335058;26;34189;-88
2022/03/04 09:50:53;;;;;;;;;;;;;;;7.12;47.88;99679.34;5334698;26;34191;-88
2022/03/04 09:53:39;;;;;;;;;;;;;;;;;;;;;
2022/03/04 09:56:09;;;;;;;;;;;;;;;7.33;46.50;99677.66;5334637;26;33808;-88
2022/03/04 09:58:38;;;;;;;;;;;;;;;7.38;46.11;99676.78;5340135;26;33961;-90
2022/03/04 10:01:09;;;;;;;;;;;;;;;7.34;46.29;99671.63;5337907;26;34524;-87
2022/03/04 10:03:43;;;;;;;;;;;;;;;7.44;46.42;99674.22;5335615;26;32819;-88
2022/03/04 10:06:11;;;;;;;;;;;;;;;7.25;46.65;99670.78;5335471;26;33149;-89
2022/03/04 10:08:42;;;;;;;;;;;;;;;7.15;48.00;99673.34;5314995;26;33427;-89
2022/03/04 10:11:11;;;;;;;;;;;;;;;7.31;47.22;99666.47;5333500;26;33982;-89
2022/03/04 10:13:59;;;;;;;;;;;;;;;7.25;47.79;99673.34;5316368;26;33470;-90
2022/03/04 10:16:28;;;;;;;;;;;;;;;7.54;46.75;99666.44;5334785;26;34076;-88
2022/03/04 10:19:04;;;;;;;;;;;;;;;7.75;45.43;99665.53;5315955;26;33776;-88
2022/03/04 10:21:44;;;;;;;;;;;;;;;7.68;46.98;99670.75;5315717;26;34197;-87
2022/03/04 10:24:14;;;;;;;;;;;;;;;7.59;46.57;99668.16;5335713;26;33977;-89
2022/03/04 10:26:42;;;;;;;;;;;;;;;6.87;47.92;99672.47;5337228;26;34948;-88
2022/03/04 10:29:19;;;;;;;;;;;;;;;7.55;46.91;99663.84;5341360;26;34666;-87
2022/03/04 10:32:06;;;;;;;;;;;;;;;7.13;47.27;99660.44;5334953;26;34038;-87
2022/03/04 10:34:47;;;;;;;;;;;;;;;7.37;47.18;99651.84;5335601;26;34021;-88
2022/03/04 10:37:16;;;;;;;;;;;;;;;7.58;47.43;99658.69;5335794;26;33704;-88
2022/03/04 10:40:00;;;;;;;;;;;;;;;7.94;45.49;99658.59;5334676;26;33499;-87
2022/03/04 10:42:39;;;;;;;;;;;;;;;7.65;46.39;99665.56;5334252;26;34277;-89
2022/03/04 10:45:08;;;;;;;;;;;;;;;7.35;47.62;99663.03;5321672;26;32672;-89
2022/03/04 10:47:40;;;;;;;;;;;;;;;7.74;46.01;99663.84;5336150;26;33937;-87
2022/03/04 10:50:09;;;;;;;;;;;;;;;7.44;47.38;99650.97;5335843;26;35047;-89
2022/03/04 10:52:51;;;;;;;;;;;;;;;7.09;48.95;99660.44;5335577;26;34618;-88
2022/03/04 10:55:30;;;;;;;;;;;;;;;6.99;49.96;99657.00;5336384;26;34171;-87
2022/03/04 10:58:00;;;;;;;;;;;;;;;7.01;49.10;99656.16;5342220;26;34096;-88
2022/03/04 11:00:30;;;;;;;;;;;;;;;7.14;49.77;99657.00;5335680;26;33953;-88
2022/03/04 11:02:59;;;;;;;;;;;;;;;6.96;49.87;99652.69;5314659;26;32980;-88
2022/03/04 11:05:28;;;;;;;;;;;;;;;7.17;49.42;99657.00;5335663;26;33126;-87
2022/03/04 11:07:57;;;;;;;;;;;;;;;6.87;50.13;99651.84;5335956;26;34171;-88
2022/03/04 11:10:26;;;;;;;;;;;;;;;6.81;50.46;99655.25;5339295;26;34296;-88
2022/03/04 11:12:55;;;;;;;;;;;;;;;6.83;50.42;99656.13;5341046;26;34000;-88
2022/03/04 11:15:25;;;;;;;;;;;;;;;6.79;50.16;99662.09;5335757;26;32883;-88
2022/03/04 11:17:54;;;;;;;;;;;;;;;6.71;50.24;99653.50;5315190;26;33494;-88
2022/03/04 11:20:22;;;;;;;;;;;;;;;7.04;50.19;99650.13;5335684;26;34275;-88
2022/03/04 11:22:51;;;;;;;;;;;;;;;7.35;49.58;99652.72;5335640;26;34715;-87
2022/03/04 11:25:22;;;;;;;;;;;;;;;7.44;49.46;99656.13;5341668;26;33152;-88
2022/03/04 11:27:52;;;;;;;;;;;;;;;7.16;49.86;99654.44;5335895;26;34040;-87
2022/03/04 11:30:32;;;;;;;;;;;;;;;7.26;49.25;99651.84;5336652;26;34064;-88
2022/03/04 11:33:05;;;;;;;;;;;;;;;7.14;48.84;99646.69;5335795;26;34052;-88
2022/03/04 11:35:37;;;;;;;;;;;;;;;7.28;48.90;99649.25;5336195;26;34169;-88
2022/03/04 11:38:05;;;;;;;;;;;;;;;6.80;50.59;99649.22;5335892;26;34724;-88
2022/03/04 11:40:35;;;;;;;;;;;;;;;7.11;50.52;99651.84;5341211;26;34839;-87
2022/03/04 11:43:06;;;;;;;;;;;;;;;7.18;49.85;99655.28;5336176;26;34089;-87
2022/03/04 11:45:37;;;;;;;;;;;;;;;6.80;50.89;99651.81;5336151;26;33173;-88
2022/03/04 12:43:55;;;;;;;;;;;;;;;6.80;51.94;99663.84;5244645;27;20024;-91
2022/03/04 16:52:43;;;;;;;;;;;;;;;6.72;51.60;99692.19;5322969;26;19963;-91
2022/03/04 16:55:12;;;;;;;;;;;;;;;6.56;51.97;99699.03;5315098;27;34622;-90
2022/03/04 16:57:40;;;;;;;;;;;;;;;6.57;52.59;99700.75;5315295;27;34449;-92
2022/03/04 17:00:10;;;;;;;;;;;;;;;6.72;52.12;99699.94;5321027;27;33332;-90
2022/03/04 17:02:39;;;;;;;;;;;;;;;6.53;52.52;99701.59;5295584;27;33419;-90
2022/03/04 17:05:10;;;;;;;;;;;;;;;6.53;52.44;99704.16;5306255;27;33473;-91
2022/03/04 17:07:39;;;;;;;;;;;;;;;6.54;52.61;99712.75;5314975;27;34053;-90
2022/03/04 17:10:09;;;;;;;;;;;;;;;6.51;52.52;99710.19;5315455;27;33193;-90
2022/03/04 17:12:37;;;;;;;;;;;;;;;6.36;52.75;99716.12;5320987;27;33928;-89
2022/03/04 17:15:07;;;;;;;;;;;;;;;6.35;52.94;99716.97;5315390;27;34033;-89
2022/03/04 17:17:35;;;;;;;;;;;;;;;6.33;52.74;99722.12;5315210;27;34584;-89
2022/03/04 17:20:04;;;;;;;;;;;;;;;6.23;52.64;99722.94;5315165;27;33347;-91
2022/03/04 17:22:34;;;;;;;;;;;;;;;6.12;52.25;99728.03;5314821;26;34867;-90
2022/03/04 17:25:03;;;;;;;;;;;;;;;6.13;51.44;99723.75;5318712;27;34105;-91
2022/03/04 17:27:37;;;;;;;;;;;;;;;6.00;51.74;99717.66;5323263;27;33926;-92
2022/03/04 17:30:09;;;;;;;;;;;;;;;5.88;51.90;99717.56;5318526;27;33158;-91
2022/03/04 17:32:38;;;;;;;;;;;;;;;5.83;51.44;99721.84;5316111;27;34102;-90
2022/03/04 17:35:07;;;;;;;;;;;;;;;5.64;51.50;99718.25;5317645;27;34069;-89
2022/03/04 17:37:35;;;;;;;;;;;;;;;5.79;51.50;99715.78;5317193;27;34256;-90
2022/03/04 17:40:04;;;;;;;;;;;;;;;5.96;51.11;99721.94;5323192;27;31939;-90
2022/03/04 17:42:35;;;;;;;;;;;;;;;5.66;51.75;99722.56;5320187;27;34349;-89
2022/03/04 17:45:04;;;;;;;;;;;;;;;5.55;52.17;99719.03;5317819;27;34024;-90
2022/03/04 17:47:33;;;;;;;;;;;;;;;5.43;52.20;99724.94;5317713;27;34754;-89
2022/03/04 17:50:01;;;;;;;;;;;;;;;5.37;52.36;99722.34;5317222;27;33008;-90
2022/03/04 17:52:38;;;;;;;;;;;;;;;5.20;52.77;99724.78;5323104;27;34230;-93
2022/03/04 17:55:07;;;;;;;;;;;;;;;5.22;52.98;99724.75;5323372;27;34990;-91
2022/03/04 17:57:37;;;;;;;;;;;;;;;5.17;53.24;99729.00;5339566;26;34068;-90
2022/03/04 18:00:06;;;;;;;;;;;;;;;5.04;53.41;99734.03;5340249;26;32807;-90
2022/03/04 18:02:42;;;;;;;;;;;;;;;4.94;53.64;99731.38;5339832;26;34574;-90
2022/03/04 18:05:11;;;;;;;;;;;;;;;4.82;53.64;99726.97;5339889;26;33902;-89
2022/03/04 18:07:40;;;;;;;;;;;;;;;4.84;53.64;99736.41;5344988;26;34331;-89
2022/03/04 18:10:08;;;;;;;;;;;;;;;4.83;53.47;99733.81;5339988;26;34169;-90
2022/03/04 18:12:38;;;;;;;;;;;;;;;4.63;53.89;99742.16;5339487;26;33886;-90